Wetterdaten: Woche 30.05.16 - 05.06.16 (KW22)
Datum Zeit Temp. Aussen Temp. o. S. +5cm Feuchte Auss BlattFeu 1 Luftdruck Regen Sonnenschein Regendauer Solar Windben Empfang
30.05.2016 00:00 15,7 C 15,6 C 14,4 C 97 % 0 lf 1005,9 hPa 0,0 l/m 0,00 h 0,00 h 0 W/m 12,7 km/h (3 Bft) 92,12 %
30.05.2016 01:00 15,7 C 15,6 C 14,4 C 96 % 0 lf 1005,8 hPa 0,0 l/m 0,00 h 0,00 h 0 W/m 12,4 km/h (3 Bft) 97,36 %
30.05.2016 02:00 15,8 C 15,6 C 14,4 C 97 % 0 lf 1005,0 hPa 0,0 l/m 0,00 h 0,00 h 0 W/m 13,7 km/h (3 Bft) 96,30 %
30.05.2016 03:00 15,8 C 15,6 C 14,4 C 97 % 0 lf 1004,6 hPa 0,0 l/m 0,00 h 0,00 h 0 W/m 16,1 km/h (3 Bft) 95,15 %
30.05.2016 04:00 15,8 C 15,6 C 14,4 C 97 % 6 lf 1004,1 hPa 0,2 l/m 0,00 h 0,40 h 0 W/m 15,9 km/h (3 Bft) 96,33 %
30.05.2016 05:00 15,9 C 15,6 C 14,4 C 97 % 15 lf 1003,8 hPa 2,4 l/m 0,00 h 1,00 h 0 W/m 15,3 km/h (3 Bft) 98,50 %
30.05.2016 06:00 15,9 C 15,6 C 14,4 C 98 % 15 lf 1003,6 hPa 8,2 l/m 0,00 h 1,00 h 10 W/m 12,8 km/h (3 Bft) 91,96 %
30.05.2016 07:00 15,7 C 15,6 C 14,4 C 98 % 15 lf 1002,8 hPa 0,2 l/m 0,00 h 0,83 h 38 W/m 19,4 km/h (3 Bft) 97,79 %
30.05.2016 08:00 15,6 C 15,7 C 14,4 C 99 % 15 lf 1002,8 hPa 1,2 l/m 0,00 h 0,53 h 39 W/m 20,3 km/h (4 Bft) 97,66 %
30.05.2016 09:00 15,9 C 16,1 C 14,7 C 99 % 15 lf 1002,5 hPa 2,8 l/m 0,00 h 0,80 h 69 W/m 15,1 km/h (3 Bft) 95,05 %
30.05.2016 10:00 15,9 C 15,9 C 14,8 C 99 % 15 lf 1002,6 hPa 1,6 l/m 0,00 h 0,67 h 53 W/m 15,2 km/h (3 Bft) 95,16 %
30.05.2016 11:00 15,8 C 15,6 C 14,4 C 99 % 15 lf 1002,8 hPa 13,4 l/m 0,00 h 1,00 h 16 W/m 20,8 km/h (4 Bft) 98,58 %
30.05.2016 12:00 15,9 C 16,2 C 15,0 C 99 % 15 lf 1002,5 hPa 1,2 l/m 0,00 h 0,97 h 135 W/m 19,1 km/h (3 Bft) 94,01 %
30.05.2016 13:00 16,9 C 17,6 C 16,4 C 100 % 15 lf 1002,5 hPa 0,2 l/m 0,00 h 0,40 h 188 W/m 17,6 km/h (3 Bft) 97,72 %
30.05.2016 14:00 17,6 C 18,1 C 17,2 C 100 % 15 lf 1002,3 hPa 0,0 l/m 0,00 h 0,10 h 129 W/m 18,4 km/h (3 Bft) 96,02 %
30.05.2016 15:00 18,2 C 19,1 C 18,1 C 100 % 13 lf 1002,1 hPa 0,0 l/m 0,00 h 0,17 h 185 W/m 15,8 km/h (3 Bft) 95,45 %
30.05.2016 16:00 19,1 C 20,8 C 19,3 C 99 % 0 lf 1001,7 hPa 0,0 l/m 0,00 h 0,10 h 173 W/m 12,9 km/h (3 Bft) 96,76 %
30.05.2016 17:00 19,5 C 21,8 C 19,9 C 98 % 0 lf 1001,3 hPa 0,0 l/m 0,23 h 0,00 h 194 W/m 9,2 km/h (2 Bft) 96,21 %
30.05.2016 18:00 20,0 C 21,1 C 19,9 C 97 % 0 lf 1001,4 hPa 0,0 l/m 0,20 h 0,00 h 152 W/m 15,1 km/h (3 Bft) 95,51 %
30.05.2016 19:00 19,5 C 20,7 C 19,0 C 95 % 4 lf 1001,3 hPa 0,0 l/m 0,87 h 0,23 h 184 W/m 16,5 km/h (3 Bft) 98,22 %
30.05.2016 20:00 19,3 C 18,5 C 17,2 C 95 % 15 lf 1001,5 hPa 1,2 l/m 0,00 h 0,70 h 19 W/m 7,4 km/h (2 Bft) 94,79 %
30.05.2016 21:00 18,8 C 17,9 C 16,6 C 96 % 15 lf 1001,7 hPa 0,0 l/m 0,00 h 0,03 h 6 W/m 7,7 km/h (2 Bft) 96,30 %
30.05.2016 22:00 17,5 C 16,5 C 15,1 C 96 % 15 lf 1002,0 hPa 0,0 l/m 0,00 h 0,00 h 0 W/m 11,2 km/h (2 Bft) 96,16 %
30.05.2016 23:00 16,5 C 15,9 C 14,4 C 96 % 15 lf 1002,4 hPa 0,0 l/m 0,00 h 0,00 h 0 W/m 9,6 km/h (2 Bft) 96,79 %
31.05.2016 00:00 16,2 C 15,6 C 14,4 C 97 % 15 lf 1002,8 hPa 0,2 l/m 0,00 h 0,00 h 0 W/m 12,6 km/h (3 Bft) 90,74 %
31.05.2016 01:00 15,9 C 16,0 C 14,0 C 97 % 15 lf 1003,3 hPa 0,0 l/m 0,00 h 0,00 h 0 W/m 16,8 km/h (3 Bft) 97,65 %
31.05.2016 02:00 15,7 C 16,0 C 14,4 C 95 % 8 lf 1003,4 hPa 0,0 l/m 0,00 h 0,00 h 0 W/m 19,1 km/h (3 Bft) 95,37 %
31.05.2016 03:00 15,7 C 16,1 C 14,4 C 94 % 0 lf 1003,5 hPa 0,0 l/m 0,00 h 0,00 h 0 W/m 20,5 km/h (4 Bft) 96,51 %
31.05.2016 04:00 15,6 C 15,6 C 14,4 C 92 % 0 lf 1003,9 hPa 0,0 l/m 0,00 h 0,00 h 0 W/m 22,3 km/h (4 Bft) 96,24 %
31.05.2016 05:00 15,5 C 15,6 C 14,3 C 90 % 0 lf 1004,4 hPa 0,0 l/m 0,00 h 0,00 h 10 W/m 21,0 km/h (4 Bft) 96,08 %
31.05.2016 06:00 15,5 C 15,8 C 14,6 C 89 % 0 lf 1004,8 hPa 0,0 l/m 0,00 h 0,00 h 43 W/m 21,8 km/h (4 Bft) 96,23 %
31.05.2016 07:00 15,9 C 16,7 C 15,1 C 88 % 0 lf 1005,2 hPa 0,0 l/m 0,87 h 0,00 h 247 W/m 22,2 km/h (4 Bft) 96,87 %
31.05.2016 08:00 16,6 C 18,8 C 15,5 C 86 % 0 lf 1005,9 hPa 0,0 l/m 1,00 h 0,00 h 411 W/m 28,9 km/h (5 Bft) 94,52 %
31.05.2016 09:00 17,7 C 19,5 C 17,5 C 82 % 0 lf 1006,8 hPa 0,0 l/m 0,20 h 0,00 h 268 W/m 26,0 km/h (4 Bft) 95,80 %
31.05.2016 10:00 18,8 C 22,4 C 21,0 C 79 % 0 lf 1007,3 hPa 0,0 l/m 0,83 h 0,00 h 437 W/m 23,4 km/h (4 Bft) 97,44 %
31.05.2016 11:00 19,7 C 23,0 C 21,9 C 75 % 0 lf 1007,9 hPa 0,0 l/m 0,93 h 0,00 h 507 W/m 23,2 km/h (4 Bft) 95,44 %
31.05.2016 12:00 20,7 C 23,5 C 22,8 C 71 % 0 lf 1008,5 hPa 0,0 l/m 0,80 h 0,00 h 540 W/m 23,3 km/h (4 Bft) 96,37 %
31.05.2016 13:00 20,3 C 21,7 C 21,4 C 71 % 0 lf 1009,1 hPa 0,0 l/m 0,23 h 0,00 h 351 W/m 20,7 km/h (4 Bft) 96,51 %
31.05.2016 14:00 20,5 C 23,6 C 22,7 C 71 % 0 lf 1009,4 hPa 0,0 l/m 0,57 h 0,00 h 526 W/m 18,3 km/h (3 Bft) 95,84 %
31.05.2016 15:00 21,1 C 23,5 C 23,6 C 69 % 0 lf 1009,6 hPa 0,0 l/m 1,00 h 0,00 h 883 W/m 20,3 km/h (4 Bft) 96,66 %
31.05.2016 16:00 20,9 C 22,6 C 22,5 C 69 % 0 lf 1009,9 hPa 0,0 l/m 1,00 h 0,00 h 732 W/m 17,6 km/h (3 Bft) 95,44 %
31.05.2016 17:00 19,9 C 20,3 C 19,2 C 73 % 0 lf 1010,2 hPa 0,0 l/m 1,00 h 0,00 h 579 W/m 12,1 km/h (2 Bft) 97,87 %
31.05.2016 18:00 20,0 C 21,0 C 20,1 C 74 % 0 lf 1010,5 hPa 0,0 l/m 1,00 h 0,00 h 642 W/m 12,1 km/h (2 Bft) 94,31 %
31.05.2016 19:00 20,3 C 20,7 C 19,8 C 73 % 0 lf 1010,9 hPa 0,0 l/m 1,00 h 0,00 h 598 W/m 8,3 km/h (2 Bft) 96,18 %
31.05.2016 20:00 19,9 C 19,7 C 18,3 C 74 % 0 lf 1011,5 hPa 0,0 l/m 0,48 h 0,00 h 238 W/m 8,3 km/h (2 Bft) 97,14 %
31.05.2016 21:00 19,2 C 18,1 C 16,2 C 75 % 0 lf 1012,0 hPa 0,0 l/m 0,33 h 0,00 h 15 W/m 3,3 km/h (1 Bft) 94,38 %
31.05.2016 22:00 17,9 C 15,9 C 14,2 C 82 % 0 lf 1012,6 hPa 0,0 l/m 0,00 h 0,00 h 3 W/m 0,4 km/h (0 Bft) 94,72 %
31.05.2016 23:00 16,6 C 15,3 C 14,1 C 86 % 0 lf 1013,1 hPa 0,0 l/m 0,00 h 0,00 h 0 W/m 0,0 km/h (0 Bft) 98,79 %
01.06.2016 00:00 16,0 C 14,8 C 13,5 C 89 % 0 lf 1013,2 hPa 0,0 l/m 0,00 h 0,00 h 0 W/m 0,0 km/h (0 Bft) 94,59 %
01.06.2016 01:00 15,4 C 14,4 C 13,3 C 90 % 0 lf 1013,3 hPa 0,0 l/m 0,00 h 0,00 h 0 W/m 0,0 km/h (0 Bft) 95,07 %
01.06.2016 02:00 15,0 C 14,3 C 13,1 C 92 % 0 lf 1013,1 hPa 0,0 l/m 0,00 h 0,00 h 0 W/m 3,2 km/h (1 Bft) 97,93 %
01.06.2016 03:00 14,8 C 14,4 C 13,6 C 93 % 0 lf 1013,0 hPa 0,0 l/m 0,00 h 0,00 h 0 W/m 0,8 km/h (0 Bft) 95,37 %
01.06.2016 04:00 14,9 C 14,9 C 13,9 C 94 % 9 lf 1012,7 hPa 0,0 l/m 0,00 h 0,43 h 0 W/m 5,0 km/h (1 Bft) 96,72 %
01.06.2016 05:00 15,2 C 15,6 C 14,0 C 94 % 5 lf 1012,6 hPa 0,0 l/m 0,03 h 0,00 h 13 W/m 7,0 km/h (2 Bft) 96,08 %
01.06.2016 06:00 15,5 C 16,1 C 14,4 C 94 % 0 lf 1012,6 hPa 0,0 l/m 0,00 h 0,00 h 20 W/m 9,6 km/h (2 Bft) 95,23 %
01.06.2016 07:00 15,8 C 15,6 C 14,2 C 93 % 9 lf 1012,7 hPa 3,6 l/m 0,00 h 0,57 h 16 W/m 6,6 km/h (2 Bft) 97,37 %
01.06.2016 08:00 15,8 C 15,4 C 14,3 C 95 % 15 lf 1012,8 hPa 8,8 l/m 0,00 h 0,43 h 58 W/m 12,1 km/h (2 Bft) 97,36 %
01.06.2016 09:00 16,2 C 16,3 C 15,4 C 97 % 15 lf 1013,0 hPa 0,2 l/m 0,00 h 0,40 h 106 W/m 9,4 km/h (2 Bft) 93,81 %
01.06.2016 10:00 16,5 C 16,3 C 15,5 C 98 % 15 lf 1012,8 hPa 0,0 l/m 0,00 h 0,20 h 57 W/m 10,6 km/h (2 Bft) 97,86 %
01.06.2016 11:00 16,8 C 16,8 C 16,0 C 98 % 15 lf 1012,8 hPa 0,0 l/m 0,00 h 0,13 h 91 W/m 11,6 km/h (2 Bft) 96,80 %
01.06.2016 12:00 17,0 C 17,1 C 16,4 C 98 % 15 lf 1012,6 hPa 0,0 l/m 0,00 h 0,17 h 109 W/m 13,3 km/h (3 Bft) 94,53 %
01.06.2016 13:00 17,1 C 17,2 C 16,4 C 99 % 15 lf 1012,5 hPa 0,0 l/m 0,00 h 0,00 h 86 W/m 12,7 km/h (3 Bft) 96,36 %
01.06.2016 14:00 17,6 C 17,8 C 17,2 C 99 % 15 lf 1012,4 hPa 0,2 l/m 0,00 h 0,53 h 131 W/m 11,2 km/h (2 Bft) 96,80 %
01.06.2016 15:00 18,5 C 18,9 C 18,1 C 99 % 15 lf 1012,0 hPa 0,0 l/m 0,00 h 0,57 h 141 W/m 9,1 km/h (2 Bft) 95,29 %
01.06.2016 16:00 19,0 C 19,5 C 18,6 C 99 % 15 lf 1011,4 hPa 0,2 l/m 0,03 h 0,40 h 179 W/m 11,8 km/h (2 Bft) 96,08 %
01.06.2016 17:00 19,8 C 20,9 C 19,7 C 99 % 0 lf 1010,7 hPa 0,0 l/m 0,40 h 0,00 h 255 W/m 15,3 km/h (3 Bft) 96,24 %
01.06.2016 18:00 19,7 C 20,2 C 18,9 C 98 % 0 lf 1010,1 hPa 0,0 l/m 0,10 h 0,00 h 136 W/m 16,1 km/h (3 Bft) 97,51 %
01.06.2016 19:00 19,0 C 19,0 C 17,9 C 97 % 0 lf 1009,7 hPa 0,0 l/m 0,00 h 0,00 h 65 W/m 19,6 km/h (3 Bft) 95,07 %
01.06.2016 20:00 18,5 C 18,0 C 16,9 C 97 % 11 lf 1009,5 hPa 4,8 l/m 0,00 h 0,77 h 16 W/m 15,7 km/h (3 Bft) 96,23 %
01.06.2016 21:00 17,8 C 17,1 C 16,1 C 97 % 15 lf 1009,8 hPa 2,4 l/m 0,00 h 1,00 h 0 W/m 11,0 km/h (2 Bft) 97,23 %
01.06.2016 22:00 17,3 C 16,7 C 15,7 C 98 % 15 lf 1009,6 hPa 1,2 l/m 0,00 h 0,23 h 0 W/m 8,3 km/h (2 Bft) 96,44 %
01.06.2016 23:00 17,1 C 16,7 C 15,6 C 98 % 15 lf 1009,6 hPa 4,8 l/m 0,00 h 0,67 h 0 W/m 12,2 km/h (2 Bft) 94,24 %
02.06.2016 00:00 17,1 C 16,7 C 15,6 C 99 % 15 lf 1009,1 hPa 0,2 l/m 0,00 h 0,20 h 0 W/m 12,0 km/h (2 Bft) 97,55 %
02.06.2016 01:00 17,3 C 17,2 C 16,1 C 99 % 15 lf 1008,8 hPa 0,2 l/m 0,00 h 0,13 h 0 W/m 15,8 km/h (3 Bft) 95,80 %
02.06.2016 02:00 17,4 C 17,2 C 16,1 C 99 % 15 lf 1008,4 hPa 0,0 l/m 0,00 h 0,33 h 0 W/m 14,0 km/h (3 Bft) 96,44 %
02.06.2016 03:00 17,8 C 17,7 C 16,4 C 100 % 15 lf 1008,0 hPa 0,2 l/m 0,00 h 0,20 h 0 W/m 14,3 km/h (3 Bft) 95,80 %
02.06.2016 04:00 17,9 C 17,8 C 16,7 C 100 % 15 lf 1007,9 hPa 1,8 l/m 0,00 h 0,37 h 0 W/m 11,6 km/h (2 Bft) 95,66 %
02.06.2016 05:00 17,8 C 17,8 C 16,5 C 100 % 15 lf 1008,1 hPa 0,0 l/m 0,00 h 0,00 h 6 W/m 12,4 km/h (3 Bft) 96,87 %
02.06.2016 06:00 17,7 C 17,5 C 16,5 C 100 % 15 lf 1008,5 hPa 0,0 l/m 0,10 h 0,00 h 41 W/m 13,5 km/h (3 Bft) 95,73 %
02.06.2016 07:00 17,2 C 17,5 C 16,7 C 100 % 15 lf 1009,1 hPa 0,0 l/m 0,13 h 0,00 h 103 W/m 10,7 km/h (2 Bft) 95,09 %
02.06.2016 08:00 17,4 C 18,6 C 17,9 C 100 % 6 lf 1009,8 hPa 0,0 l/m 0,37 h 0,00 h 183 W/m 11,1 km/h (2 Bft) 98,93 %
02.06.2016 09:00 18,5 C 22,9 C 20,3 C 97 % 0 lf 1010,0 hPa 0,0 l/m 0,83 h 0,00 h 349 W/m 14,5 km/h (3 Bft) 96,15 %
02.06.2016 10:00 20,6 C 24,7 C 22,3 C 83 % 0 lf 1010,1 hPa 0,0 l/m 0,33 h 0,00 h 369 W/m 10,6 km/h (2 Bft) 94,53 %
02.06.2016 11:00 20,9 C 25,2 C 22,5 C 81 % 0 lf 1010,1 hPa 0,0 l/m 0,30 h 0,00 h 359 W/m 10,1 km/h (2 Bft) 97,07 %
02.06.2016 12:00 21,7 C 27,0 C 24,1 C 81 % 0 lf 1010,1 hPa 0,0 l/m 0,40 h 0,00 h 487 W/m 13,2 km/h (3 Bft) 97,15 %
02.06.2016 13:00 23,0 C 29,1 C 24,3 C 76 % 0 lf 1009,9 hPa 0,0 l/m 0,70 h 0,00 h 672 W/m 18,9 km/h (3 Bft) 93,02 %
02.06.2016 14:00 23,6 C 28,8 C 25,3 C 73 % 0 lf 1009,6 hPa 0,0 l/m 0,43 h 0,00 h 535 W/m 16,9 km/h (3 Bft) 98,64 %
02.06.2016 15:00 24,3 C 31,8 C 31,3 C 68 % 0 lf 1009,0 hPa 0,0 l/m 1,00 h 0,00 h 846 W/m 16,5 km/h (3 Bft) 96,00 %
02.06.2016 16:00 25,0 C 30,7 C 30,6 C 66 % 0 lf 1008,8 hPa 0,0 l/m 0,87 h 0,00 h 627 W/m 15,6 km/h (3 Bft) 94,38 %
02.06.2016 17:00 24,0 C 25,0 C 23,9 C 70 % 4 lf 1009,0 hPa 5,8 l/m 0,30 h 0,27 h 238 W/m 23,6 km/h (4 Bft) 97,58 %
02.06.2016 18:00 18,2 C 17,1 C 16,2 C 93 % 15 lf 1010,0 hPa 4,6 l/m 0,00 h 1,00 h 16 W/m 16,3 km/h (3 Bft) 96,80 %
02.06.2016 19:00 17,4 C 17,1 C 16,5 C 95 % 15 lf 1009,5 hPa 0,4 l/m 0,00 h 0,70 h 59 W/m 8,7 km/h (2 Bft) 95,43 %
02.06.2016 20:00 17,4 C 17,2 C 16,6 C 97 % 15 lf 1009,9 hPa 0,0 l/m 0,00 h 0,00 h 53 W/m 9,8 km/h (2 Bft) 95,80 %
02.06.2016 21:00 17,4 C 16,8 C 16,1 C 97 % 15 lf 1010,3 hPa 0,0 l/m 0,00 h 0,00 h 14 W/m 4,9 km/h (1 Bft) 96,30 %
02.06.2016 22:00 17,2 C 16,7 C 16,0 C 98 % 15 lf 1010,7 hPa 0,0 l/m 0,00 h 0,00 h 0 W/m 3,8 km/h (1 Bft) 96,72 %
02.06.2016 23:00 17,2 C 16,7 C 16,1 C 98 % 15 lf 1010,9 hPa 0,0 l/m 0,00 h 0,00 h 0 W/m 6,1 km/h (2 Bft) 94,09 %
03.06.2016 00:00 17,1 C 16,7 C 15,8 C 98 % 15 lf 1010,8 hPa 0,0 l/m 0,00 h 0,17 h 0 W/m 8,8 km/h (2 Bft) 98,18 %
03.06.2016 01:00 16,8 C 16,7 C 15,6 C 98 % 15 lf 1010,7 hPa 0,0 l/m 0,00 h 0,00 h 0 W/m 7,6 km/h (2 Bft) 95,66 %
03.06.2016 02:00 16,7 C 16,7 C 15,6 C 99 % 15 lf 1010,7 hPa 0,0 l/m 0,00 h 0,00 h 0 W/m 6,6 km/h (2 Bft) 96,23 %
03.06.2016 03:00 16,6 C 16,2 C 15,4 C 99 % 15 lf 1010,7 hPa 0,0 l/m 0,00 h 0,00 h 0 W/m 10,5 km/h (2 Bft) 95,30 %
03.06.2016 04:00 16,2 C 15,9 C 15,0 C 99 % 15 lf 1010,7 hPa 0,0 l/m 0,00 h 0,00 h 0 W/m 9,9 km/h (2 Bft) 96,45 %
03.06.2016 05:00 15,9 C 15,6 C 14,8 C 99 % 15 lf 1010,8 hPa 0,0 l/m 0,00 h 0,00 h 5 W/m 9,0 km/h (2 Bft) 95,59 %
03.06.2016 06:00 15,7 C 15,7 C 14,7 C 99 % 15 lf 1010,9 hPa 0,0 l/m 0,00 h 0,00 h 16 W/m 9,0 km/h (2 Bft) 97,63 %
03.06.2016 07:00 15,9 C 16,1 C 15,2 C 99 % 15 lf 1011,1 hPa 0,0 l/m 0,00 h 0,00 h 44 W/m 7,3 km/h (2 Bft) 94,34 %
03.06.2016 08:00 16,2 C 17,0 C 16,3 C 99 % 9 lf 1011,5 hPa 0,0 l/m 0,00 h 0,00 h 92 W/m 6,9 km/h (2 Bft) 96,87 %
03.06.2016 09:00 16,8 C 18,5 C 17,7 C 100 % 0 lf 1011,8 hPa 0,0 l/m 0,00 h 0,00 h 151 W/m 8,5 km/h (2 Bft) 97,20 %
03.06.2016 10:00 17,6 C 21,9 C 20,3 C 100 % 0 lf 1011,7 hPa 0,0 l/m 0,33 h 0,00 h 318 W/m 9,9 km/h (2 Bft) 94,51 %
03.06.2016 11:00 19,1 C 26,6 C 23,2 C 98 % 0 lf 1011,6 hPa 0,0 l/m 0,60 h 0,00 h 493 W/m 9,4 km/h (2 Bft) 95,43 %
03.06.2016 12:00 20,8 C 28,0 C 24,7 C 86 % 0 lf 1011,6 hPa 0,0 l/m 0,83 h 0,00 h 645 W/m 14,3 km/h (3 Bft) 99,36 %
03.06.2016 13:00 22,0 C 27,8 C 24,7 C 80 % 0 lf 1011,6 hPa 0,0 l/m 0,77 h 0,00 h 584 W/m 13,0 km/h (3 Bft) 93,81 %
03.06.2016 14:00 22,5 C 28,4 C 25,8 C 77 % 0 lf 1011,4 hPa 0,0 l/m 0,67 h 0,00 h 595 W/m 14,6 km/h (3 Bft) 96,72 %
03.06.2016 15:00 22,5 C 25,8 C 24,5 C 77 % 0 lf 1011,1 hPa 0,0 l/m 0,50 h 0,00 h 464 W/m 17,2 km/h (3 Bft) 97,43 %
03.06.2016 16:00 23,0 C 28,2 C 27,7 C 77 % 0 lf 1010,8 hPa 0,0 l/m 0,93 h 0,00 h 615 W/m 17,8 km/h (3 Bft) 96,06 %
03.06.2016 17:00 23,1 C 26,0 C 24,4 C 76 % 0 lf 1010,7 hPa 0,0 l/m 0,87 h 0,00 h 430 W/m 17,3 km/h (3 Bft) 94,27 %
03.06.2016 18:00 23,2 C 24,9 C 23,2 C 76 % 0 lf 1010,5 hPa 0,0 l/m 1,00 h 0,00 h 401 W/m 15,8 km/h (3 Bft) 97,30 %
03.06.2016 19:00 22,8 C 23,7 C 22,2 C 77 % 0 lf 1010,3 hPa 0,0 l/m 0,67 h 0,00 h 165 W/m 14,1 km/h (3 Bft) 96,94 %
03.06.2016 20:00 22,0 C 21,3 C 19,6 C 80 % 0 lf 1010,4 hPa 0,0 l/m 0,10 h 0,00 h 48 W/m 11,8 km/h (2 Bft) 95,02 %
03.06.2016 21:00 20,6 C 19,2 C 17,4 C 84 % 0 lf 1010,7 hPa 0,0 l/m 0,00 h 0,00 h 8 W/m 9,0 km/h (2 Bft) 95,87 %
03.06.2016 22:00 19,3 C 18,5 C 17,1 C 87 % 4 lf 1011,2 hPa 0,0 l/m 0,00 h 0,13 h 0 W/m 8,2 km/h (2 Bft) 98,08 %
03.06.2016 23:00 18,5 C 17,8 C 16,2 C 88 % 4 lf 1011,8 hPa 0,0 l/m 0,00 h 0,03 h 0 W/m 12,1 km/h (2 Bft) 95,02 %
04.06.2016 00:00 17,6 C 16,3 C 15,2 C 88 % 8 lf 1012,0 hPa 13,8 l/m 0,00 h 0,50 h 0 W/m 10,8 km/h (2 Bft) 96,14 %
04.06.2016 01:00 16,1 C 14,9 C 13,9 C 93 % 15 lf 1011,6 hPa 0,0 l/m 0,00 h 0,00 h 4 W/m 4,6 km/h (1 Bft) 98,43 %
04.06.2016 02:00 15,5 C 14,6 C 13,4 C 95 % 15 lf 1011,4 hPa 0,0 l/m 0,00 h 0,03 h 4 W/m 4,4 km/h (1 Bft) 95,66 %
04.06.2016 03:00 15,3 C 14,5 C 13,4 C 96 % 15 lf 1011,3 hPa 0,0 l/m 0,00 h 0,00 h 0 W/m 3,1 km/h (1 Bft) 94,30 %
04.06.2016 04:00 15,3 C 15,1 C 14,1 C 96 % 15 lf 1011,3 hPa 0,0 l/m 0,00 h 0,00 h 0 W/m 4,0 km/h (1 Bft) 98,01 %
04.06.2016 05:00 15,9 C 16,0 C 15,0 C 98 % 15 lf 1011,4 hPa 0,0 l/m 0,00 h 0,00 h 7 W/m 10,0 km/h (2 Bft) 94,74 %
04.06.2016 06:00 16,1 C 15,9 C 15,0 C 98 % 15 lf 1011,7 hPa 0,0 l/m 0,00 h 0,00 h 18 W/m 9,3 km/h (2 Bft) 97,65 %
04.06.2016 07:00 15,9 C 15,9 C 15,0 C 98 % 15 lf 1011,9 hPa 0,0 l/m 0,00 h 0,00 h 47 W/m 9,9 km/h (2 Bft) 95,51 %
04.06.2016 08:00 16,1 C 16,4 C 15,9 C 99 % 15 lf 1012,2 hPa 0,0 l/m 0,00 h 0,00 h 82 W/m 8,8 km/h (2 Bft) 95,31 %
04.06.2016 09:00 16,4 C 17,5 C 17,2 C 99 % 13 lf 1012,5 hPa 0,0 l/m 0,03 h 0,00 h 156 W/m 8,7 km/h (2 Bft) 97,08 %
04.06.2016 10:00 17,1 C 20,5 C 19,7 C 99 % 0 lf 1012,7 hPa 0,0 l/m 0,10 h 0,00 h 272 W/m 9,4 km/h (2 Bft) 97,08 %
04.06.2016 11:00 18,7 C 27,4 C 24,4 C 99 % 0 lf 1012,9 hPa 0,0 l/m 0,80 h 0,00 h 589 W/m 10,0 km/h (2 Bft) 92,88 %
04.06.2016 12:00 21,7 C 31,6 C 27,8 C 89 % 0 lf 1012,8 hPa 0,0 l/m 0,93 h 0,00 h 753 W/m 13,7 km/h (3 Bft) 98,36 %
04.06.2016 13:00 23,6 C 31,3 C 26,3 C 81 % 0 lf 1012,4 hPa 0,0 l/m 0,77 h 0,00 h 726 W/m 13,9 km/h (3 Bft) 96,44 %
04.06.2016 14:00 23,9 C 26,1 C 24,8 C 79 % 0 lf 1012,1 hPa 0,2 l/m 0,23 h 0,00 h 317 W/m 14,6 km/h (3 Bft) 95,09 %
04.06.2016 15:00 21,5 C 21,6 C 20,5 C 85 % 0 lf 1011,7 hPa 0,0 l/m 0,00 h 0,07 h 118 W/m 19,8 km/h (4 Bft) 96,81 %
04.06.2016 16:00 20,4 C 21,0 C 20,2 C 88 % 3 lf 1011,8 hPa 0,0 l/m 0,00 h 0,20 h 148 W/m 16,0 km/h (3 Bft) 96,57 %
04.06.2016 17:00 20,3 C 21,6 C 20,8 C 90 % 0 lf 1012,0 hPa 0,0 l/m 0,30 h 0,00 h 252 W/m 17,1 km/h (3 Bft) 95,16 %
04.06.2016 18:00 20,9 C 21,8 C 20,8 C 89 % 0 lf 1012,0 hPa 0,0 l/m 0,23 h 0,00 h 199 W/m 12,1 km/h (2 Bft) 96,34 %
04.06.2016 19:00 20,7 C 20,6 C 19,0 C 90 % 0 lf 1012,1 hPa 0,0 l/m 0,00 h 0,00 h 48 W/m 7,5 km/h (2 Bft) 96,09 %
04.06.2016 20:00 20,2 C 19,6 C 18,2 C 92 % 0 lf 1012,5 hPa 0,0 l/m 0,00 h 0,00 h 27 W/m 6,0 km/h (2 Bft) 96,31 %
04.06.2016 21:00 19,6 C 18,4 C 17,0 C 93 % 1 lf 1013,2 hPa 0,0 l/m 0,00 h 0,00 h 8 W/m 3,2 km/h (1 Bft) 95,21 %
04.06.2016 22:00 19,0 C 18,1 C 16,6 C 94 % 2 lf 1013,6 hPa 0,0 l/m 0,00 h 0,00 h 0 W/m 6,5 km/h (2 Bft) 96,57 %
04.06.2016 23:00 18,2 C 17,3 C 15,9 C 95 % 8 lf 1014,0 hPa 0,0 l/m 0,00 h 0,00 h 0 W/m 6,8 km/h (2 Bft) 97,28 %
05.06.2016 00:00 17,5 C 16,6 C 15,1 C 96 % 15 lf 1014,5 hPa 0,0 l/m 0,00 h 0,00 h 0 W/m 4,6 km/h (1 Bft) 94,02 %
05.06.2016 01:00 16,9 C 16,1 C 15,0 C 97 % 15 lf 1014,4 hPa 0,0 l/m 0,00 h 0,00 h 0 W/m 9,4 km/h (2 Bft) 96,26 %
05.06.2016 02:00 16,5 C 15,8 C 14,5 C 97 % 15 lf 1014,4 hPa 0,0 l/m 0,00 h 0,00 h 0 W/m 7,6 km/h (2 Bft) 98,44 %
05.06.2016 03:00 16,0 C 15,3 C 14,1 C 98 % 15 lf 1014,5 hPa 0,0 l/m 0,00 h 0,00 h 0 W/m 3,1 km/h (1 Bft) 94,21 %
05.06.2016 04:00 15,8 C 15,5 C 14,5 C 98 % 15 lf 1014,7 hPa 0,0 l/m 0,00 h 0,00 h 0 W/m 4,1 km/h (1 Bft) 96,46 %
05.06.2016 05:00 15,5 C 15,0 C 14,4 C 98 % 15 lf 1014,9 hPa 0,0 l/m 0,00 h 0,00 h 9 W/m 4,3 km/h (1 Bft) 97,10 %
05.06.2016 06:00 15,5 C 15,4 C 14,7 C 98 % 15 lf 1015,3 hPa 0,0 l/m 0,00 h 0,00 h 35 W/m 6,9 km/h (2 Bft) 95,56 %
05.06.2016 07:00 15,8 C 16,2 C 15,4 C 99 % 15 lf 1015,7 hPa 0,0 l/m 0,00 h 0,00 h 74 W/m 6,2 km/h (2 Bft) 95,61 %
05.06.2016 08:00 16,3 C 17,7 C 17,0 C 99 % 3 lf 1016,0 hPa 0,0 l/m 0,00 h 0,00 h 125 W/m 6,0 km/h (2 Bft) 97,24 %
05.06.2016 09:00 17,0 C 19,3 C 18,8 C 100 % 0 lf 1016,4 hPa 0,0 l/m 0,00 h 0,00 h 197 W/m 5,1 km/h (1 Bft) 94,10 %
05.06.2016 10:00 18,2 C 25,2 C 22,8 C 100 % 0 lf 1016,8 hPa 0,0 l/m 0,83 h 0,00 h 474 W/m 6,6 km/h (2 Bft) 98,35 %
05.06.2016 11:00 21,1 C 33,0 C 27,6 C 93 % 0 lf 1017,1 hPa 0,0 l/m 1,00 h 0,00 h 808 W/m 8,5 km/h (2 Bft) 95,54 %
05.06.2016 12:00 23,8 C 34,7 C 30,1 C 82 % 0 lf 1017,1 hPa 0,0 l/m 1,00 h 0,00 h 862 W/m 10,7 km/h (2 Bft) 95,43 %
05.06.2016 13:00 25,7 C 35,5 C 27,3 C 75 % 0 lf 1016,7 hPa 0,0 l/m 1,00 h 0,00 h 880 W/m 14,1 km/h (3 Bft) 98,09 %
05.06.2016 14:00 27,2 C 34,8 C 31,0 C 63 % 0 lf 1015,9 hPa 0,0 l/m 0,87 h 0,00 h 794 W/m 18,8 km/h (3 Bft) 95,14 %
05.06.2016 15:00 27,9 C 34,9 C 34,3 C 54 % 0 lf 1015,8 hPa 0,0 l/m 1,00 h 0,00 h 867 W/m 21,7 km/h (4 Bft) 95,09 %
05.06.2016 16:00 28,2 C 33,2 C 32,5 C 53 % 0 lf 1015,7 hPa 0,0 l/m 0,83 h 0,00 h 612 W/m 22,4 km/h (4 Bft) 98,29 %
05.06.2016 17:00 27,5 C 28,7 C 26,5 C 55 % 0 lf 1015,7 hPa 0,0 l/m 0,20 h 0,00 h 233 W/m 17,3 km/h (3 Bft) 95,32 %
05.06.2016 18:00 26,6 C 27,0 C 25,0 C 59 % 0 lf 1015,8 hPa 0,0 l/m 0,37 h 0,00 h 196 W/m 17,5 km/h (3 Bft) 96,01 %
05.06.2016 19:00 26,2 C 27,1 C 24,7 C 62 % 0 lf 1016,2 hPa 0,0 l/m 1,00 h 0,03 h 229 W/m 15,1 km/h (3 Bft) 96,66 %
05.06.2016 20:00 23,2 C 22,0 C 18,6 C 70 % 13 lf 1016,8 hPa 2,0 l/m 0,30 h 0,67 h 77 W/m 26,1 km/h (4 Bft) 96,27 %
05.06.2016 21:00 20,2 C 18,2 C 16,7 C 85 % 15 lf 1017,6 hPa 11,2 l/m 0,10 h 0,50 h 14 W/m 13,7 km/h (3 Bft) 94,94 %
05.06.2016 22:00 18,7 C 17,6 C 16,5 C 92 % 15 lf 1018,3 hPa 0,2 l/m 0,00 h 0,30 h 0 W/m 5,5 km/h (1 Bft) 96,66 %
05.06.2016 23:00 18,4 C 17,7 C 16,6 C 95 % 15 lf 1018,6 hPa 1,2 l/m 0,00 h 0,83 h 0 W/m 7,6 km/h (2 Bft) 97,01 %
Min-Datum _ 01.06.16 01.06.16 01.06.16 05.06.16 30.05.16 30.05.16 - - - - 30.05.16 30.05.16
_ Min-Zeit 02:54 02:22 02:16 15:26 00:00 18:02 - - - - 20:10 00:02
Minimum _ 14,8 C 13,9 C 12,8 C 51 % 0 lf 1001,0 hPa - - - - 0,0 km/h (0 Bft) 4,76 %
Max-Datum _ 05.06.16 05.06.16 05.06.16 30.05.16 30.05.16 05.06.16 04.06.16 30.05.16 30.05.16 02.06.16 05.06.16 30.05.16
_ Max-Zeit 15:58 13:44 15:22 13:00 04:38 23:24 00:38 17:36 04:36 13:18 20:18 00:06
Maximum _ 28,4 C 37,2 C 36,7 C 100 % 15 lf 1018,8 hPa 13,8 l/m 0,03 h 0,03 h 1091 W/m 58,6 km/h
N-NO (7 Bft)
100,00 %
Durchschnitt _ 18,6 C 19,7 C 18,3 C 90 % 7 lf 1010,2 hPa #100,8 l/m #38:03 h #22:10 h 253 W/m 12,2 km/h (2 Bft) 96,12 %
© 2016 W. Hausmann